Maple Heights, Iowa
Current Conditions -  °F | °C
As of 3:35 PM on Wednesday 17 Dec 2014 (Local Time) from KCCY Reporting Station
Few Clouds Few Clouds  
Wind Chill: 13°   Ceiling: Unl
Heat Index: 23°   Visibility: 10mi
Dew Point: 18°   Wind: 9mph
Humidity: 80%   Direction: 340°NNW
Pressure: 30.26"   Gusts: NA
Location:  43.0699°N, 92.7147°W
Report Text: KCCY 172135Z AUTO 34008KT 10SM FEW018 M05/M08 A3026 RMK AO2
Loading
Personal Weather Stations






























Interactive Weather Map New forecast layout! Learn more

10-Day Weather Forecast

Advertisements
Track Severe Weather on mobile